Weather observations for the past three days for
Oxnard, Oxnard Airport
Imperial (Metric)
Date Time (pdt) Wind (mph) Vis. (mi.) Weather Sky Cond. Temperature (ºF) Relative Humidity Wind Chill (°F) Heat Index (°F) Pressure Precipitation (in)
Air Dwpt 6 hour altimeter (in) sea level (mb) 1 hr 3 hr 6 hr
Max. Min.
06 01:51 Calm 10.00 Fair CLR 66 60.1 81% 29.89 1012.1
06 00:51 Calm 10.00 Fair CLR 66.9 63 87% 29.9 1012.5
05 23:51 NW 3 10.00 Fair CLR 66.9 63 87% 29.9 1012.5
05 22:51 NW 5 10.00 Fair CLR 68 63 75 68 84% 29.9 1012.5
05 21:51 W 7 10.00 Fair CLR 68 64 87% 29.91 1012.8
05 20:51 W 9 10.00 Fair CLR 68 64.9 90% 29.9 1012.5
05 19:51 W 8 10.00 Fair CLR 69.1 64 84% 29.89 1012.0
05 18:51 W 12 10.00 Fair CLR 70 64 82% 29.89 1012.0
05 17:51 W 14 10.00 Fair CLR 73 64 74% 29.9 1012.3
05 16:51 W 13 10.00 Fair CLR 73.9 62.1 78.1 73.9 67% 29.89 1012.1
05 15:51 W 15 10.00 Fair CLR 77 60.1 56% 79 29.9 1012.3
05 14:51 W 12 10.00 Fair CLR 77 60.1 56% 79 29.91 1012.7
05 13:51 W 13 G 23 10.00 Fair CLR 75.9 63 64% 78 29.92 1013.1
05 12:51 W 10 10.00 Fair CLR 75 63 66% 77 29.94 1013.7
05 10:51 W 7 10.00 Fair CLR 73.9 62.1 75.9 62.1 67% 29.96 1014.4
05 09:51 W 5 10.00 Fair CLR 73.9 59 60% 29.95 1014.2
05 08:51 Calm 10.00 Fair CLR 70 57 64% 29.95 1014.1
05 07:51 NE 7 10.00 Fair CLR 66 55.9 70% 29.94 1013.7
05 06:51 NE 5 10.00 Fair CLR 62.1 55.9 80% 29.92 1013.1
05 05:51 NE 6 10.00 Fair CLR 62.1 55.9 80% 29.91 1012.7
05 04:51 NE 3 10.00 Fair CLR 62.1 57.9 66 62.1 86% 29.9 1012.6
05 03:51 NE 5 10.00 Fair CLR 63 59 87% 29.91 1012.6
05 02:51 NE 3 10.00 Fair CLR 64 61 90% 29.91 1012.7
05 01:51 Calm 10.00 Fair CLR 64.9 62.1 90% 29.92 1013.0
05 00:51 NW 5 10.00 Fair CLR 66 63 90% 29.92 1013.2
04 23:51 NW 7 10.00 Mostly Cloudy BKN009 66 63 90% 29.92 1012.9
04 22:51 W 9 10.00 Fair CLR 66 63 73.9 66 90% 29.92 1012.9
04 21:51 W 13 10.00 Fair CLR 66.9 63 87% 29.91 1012.8
04 20:51 W 10 10.00 Fair CLR 68 64 87% 29.9 1012.4
04 19:51 W 12 10.00 Fair CLR 68 64 87% 29.89 1012.1
04 18:51 W 16 10.00 Fair CLR 69.1 63 81% 29.89 1012.2
04 17:51 W 15 10.00 Fair CLR 72 63 73% 29.9 1012.3
04 16:51 W 12 10.00 Fair CLR 73.9 62.1 75.9 73 67% 29.9 1012.4
04 15:51 W 12 10.00 Fair CLR 75 63 66% 77 29.9 1012.6
04 14:51 SW 10 G 20 10.00 Fair CLR 73.9 63 69% 29.91 1012.8
04 13:51 SW 10 10.00 Fair CLR 73.9 62.1 67% 29.91 1012.9
04 12:51 SW 10 10.00 Fair CLR 75 62.1 64% 77 29.92 1013.0
04 11:51 SW 7 10.00 Fair CLR 73.9 61 64% 29.93 1013.3
04 10:51 SE 8 10.00 Partly Cloudy SCT026 73.9 61 73.9 61 64% 29.94 1013.7
04 09:51 Calm 10.00 Fair CLR 72 59 64% 29.93 1013.4
04 08:51 NE 5 10.00 Fair CLR 69.1 57.9 68% 29.92 1013.2
04 07:51 NE 6 10.00 Fair CLR 64.9 57 76% 29.91 1012.8
04 06:51 NE 5 10.00 Fair CLR 61 57 87% 29.9 1012.4
04 05:51 NE 5 10.00 Fair CLR 62.1 57 84% 29.89 1011.9
04 04:51 Calm 10.00 Fair CLR 62.1 59 66.9 62.1 90% 29.88 1011.8
04 03:51 NE 3 10.00 Fair CLR 63 59 87% 29.88 1011.8
04 02:51 E 3 10.00 Fair CLR 64 60.1 87% 29.88 1011.6
04 01:51 Calm 10.00 A Few Clouds FEW012 64.9 61 87% 29.88 1011.7
04 00:51 Calm 10.00 Mostly Cloudy BKN013 66 61 84% 29.89 1012.1
03 23:51 W 3 10.00 Overcast OVC013 66.9 62.1 84% 29.88 1011.8
03 22:51 W 7 10.00 Overcast OVC012 66 61 72 66 84% 29.88 1011.6
03 21:51 W 7 10.00 Fair CLR 66 62.1 87% 29.88 1011.8
03 20:51 W 12 10.00 Fair CLR 66 62.1 87% 29.87 1011.5
03 19:51 W 10 10.00 Fair CLR 66.9 63 87% 29.87 1011.2
03 18:51 W 14 10.00 Fair CLR 69.1 62.1 78% 29.86 1011.1
03 17:51 W 14 10.00 Fair CLR 71.1 57.9 63% 29.88 1011.6
03 16:51 W 10 10.00 Fair CLR 72 61 73.9 71.1 68% 29.89 1011.9
03 15:51 W 14 10.00 Fair CLR 73 60.1 64% 29.9 1012.3
03 14:51 W 9 G 18 10.00 Fair CLR 73.9 60.1 62% 29.91 1012.7
03 13:51 W 13 10.00 Fair CLR 73.9 60.1 62% 29.92 1013.0
03 12:51 W 9 10.00 Fair CLR 73 60.1 64% 29.93 1013.3
03 11:51 SW 7 10.00 Fair CLR 72 60.1 66% 29.94 1013.9
03 10:51 Vrbl 7 10.00 Fair CLR 72 61 72 60.1 68% 29.95 1014.0
03 09:51 W 5 10.00 Fair CLR 70 60.1 71% 29.95 1014.0
03 08:51 Calm 10.00 A Few Clouds FEW019 66.9 57.9 73% 29.95 1014.1
03 07:51 NE 6 10.00 Fair CLR 63 55.9 78% 29.95 1014.0
03 06:51 Calm 10.00 Fair CLR 60.1 54 80% 29.94 1013.6
03 05:51 Calm 10.00 Fair CLR 60.1 55.9 86% 29.93 1013.4
03 04:51 NE 5 10.00 Fair CLR 62.1 57 66.9 62.1 84% 29.93 1013.5
03 03:51 E 5 10.00 Overcast OVC014 63 57.9 84% 29.94 1013.7
03 02:51 NE 3 10.00 Fair CLR 63 57.9 84% 29.94 1013.8
Date Time (pdt) Wind (mph) Vis. (mi.) Weather Sky Cond. Air Dwpt Max. Min. Relative Humidity Wind Chill (°F) Heat Index (°F) altimeter (in) sea level (mb) 1 hr 3 hr 6 hr
6 hour
Temperature (ºF) Pressure Precipitation (in)